createdAt,value
2022-10-21T00:00:36.086Z,18.67
2022-10-21T00:03:03.326Z,16.98
2022-10-21T00:05:30.479Z,17.92
2022-10-21T00:07:58.461Z,18.27
2022-10-21T00:10:25.589Z,17.77
2022-10-21T00:12:52.624Z,17.85
2022-10-21T00:15:19.738Z,19.08
2022-10-21T00:17:46.805Z,18.80
2022-10-21T00:20:13.911Z,18.00
2022-10-21T00:22:41.153Z,18.63
2022-10-21T00:25:09.133Z,19.13
2022-10-21T00:27:36.488Z,19.15
2022-10-21T00:30:05.985Z,19.42
2022-10-21T00:32:33.195Z,18.13
2022-10-21T00:35:00.409Z,18.15
2022-10-21T00:37:31.310Z,17.52
2022-10-21T00:39:59.362Z,18.48
2022-10-21T00:42:39.598Z,18.70
2022-10-21T00:45:09.249Z,18.77
2022-10-21T00:47:58.679Z,18.13
2022-10-21T00:50:53.675Z,18.48
2022-10-21T00:53:22.019Z,17.77
2022-10-21T00:55:56.869Z,17.40
2022-10-21T00:58:28.539Z,18.95
2022-10-21T01:00:57.749Z,17.48
2022-10-21T01:03:26.476Z,18.17
2022-10-21T01:05:56.341Z,17.23
2022-10-21T01:08:24.511Z,16.90
2022-10-21T01:10:52.814Z,16.40
2022-10-21T01:13:50.679Z,15.25
2022-10-21T01:16:44.337Z,16.65
2022-10-21T01:19:52.073Z,15.35
2022-10-21T01:25:25.757Z,12.98
2022-10-21T01:28:16.211Z,14.30
2022-10-21T01:30:53.567Z,15.60
2022-10-21T01:33:27.390Z,14.95
2022-10-21T01:38:55.897Z,16.52
2022-10-21T01:41:37.640Z,16.38
2022-10-21T01:44:17.450Z,17.50
2022-10-21T01:46:57.789Z,18.20
2022-10-21T01:49:48.095Z,17.92
2022-10-21T01:52:17.150Z,18.40
2022-10-21T01:54:48.977Z,17.83
2022-10-21T01:57:20.717Z,17.73
2022-10-21T01:59:48.627Z,17.83
2022-10-21T02:02:17.128Z,18.23
2022-10-21T02:04:47.664Z,17.85
2022-10-21T02:07:14.698Z,18.48
2022-10-21T02:09:41.784Z,18.40
2022-10-21T02:12:10.956Z,18.50
2022-10-21T02:15:00.160Z,19.88
2022-10-21T02:17:29.004Z,17.85
2022-10-21T02:20:00.205Z,19.63
2022-10-21T02:22:28.923Z,18.77
2022-10-21T02:25:01.858Z,19.58
2022-10-21T02:27:28.928Z,19.03
2022-10-21T02:30:01.170Z,18.42
2022-10-21T02:32:34.002Z,20.73
2022-10-21T02:35:20.515Z,18.90
2022-10-21T02:37:54.398Z,19.05
2022-10-21T02:40:31.843Z,20.08
2022-10-21T02:43:04.635Z,20.95
2022-10-21T02:45:33.066Z,20.15
2022-10-21T02:48:00.301Z,20.85
2022-10-21T02:50:27.281Z,20.60
2022-10-21T02:52:54.333Z,20.33
2022-10-21T02:55:21.334Z,19.88
2022-10-21T02:57:48.349Z,19.55
2022-10-21T03:00:15.667Z,20.52
2022-10-21T03:02:42.743Z,21.13
2022-10-21T03:05:10.463Z,20.92
2022-10-21T03:07:37.568Z,20.77
2022-10-21T03:10:05.474Z,20.48
2022-10-21T03:12:32.522Z,21.02
2022-10-21T03:14:59.535Z,21.75
2022-10-21T03:17:26.571Z,21.45
2022-10-21T03:19:53.576Z,20.08
2022-10-21T03:22:20.610Z,19.85
2022-10-21T03:24:47.706Z,20.58
2022-10-21T03:27:14.693Z,21.15
2022-10-21T03:29:41.772Z,22.13
2022-10-21T03:32:08.811Z,20.55
2022-10-21T03:34:35.886Z,19.73
2022-10-21T03:37:02.947Z,20.05
2022-10-21T03:39:30.372Z,20.70
2022-10-21T03:41:57.374Z,21.30
2022-10-21T03:44:24.364Z,21.27
2022-10-21T03:46:51.385Z,21.38
2022-10-21T03:49:21.300Z,21.25
2022-10-21T03:51:49.564Z,19.42
2022-10-21T03:54:17.774Z,21.52
2022-10-21T03:56:44.828Z,21.33
2022-10-21T03:59:11.842Z,20.33
2022-10-21T04:01:38.969Z,21.67
2022-10-21T04:04:06.234Z,19.67
2022-10-21T04:06:33.322Z,19.70
2022-10-21T04:09:01.375Z,20.27
2022-10-21T04:11:29.006Z,21.15
2022-10-21T04:13:56.112Z,20.75
2022-10-21T04:16:23.392Z,20.45
2022-10-21T04:18:50.453Z,19.50
2022-10-21T04:21:19.086Z,21.45
2022-10-21T04:23:46.153Z,21.30
2022-10-21T04:26:13.183Z,19.80
2022-10-21T04:28:40.174Z,19.88
2022-10-21T04:31:07.395Z,19.73
2022-10-21T04:33:34.595Z,19.95
2022-10-21T04:36:02.145Z,21.10
2022-10-21T04:38:29.352Z,21.05
2022-10-21T04:40:58.925Z,20.60
2022-10-21T04:43:26.663Z,21.33
2022-10-21T04:45:54.371Z,20.15
2022-10-21T04:48:22.060Z,21.13
2022-10-21T04:50:52.915Z,20.67
2022-10-21T04:53:20.989Z,20.30
2022-10-21T04:55:54.086Z,20.15
2022-10-21T04:58:22.434Z,20.48
2022-10-21T05:00:50.945Z,20.48
2022-10-21T05:03:19.424Z,20.23
2022-10-21T05:05:50.347Z,20.10
2022-10-21T05:08:18.499Z,20.13
2022-10-21T05:10:45.801Z,20.17
2022-10-21T05:13:12.866Z,19.85
2022-10-21T05:15:39.886Z,20.75
2022-10-21T05:18:06.896Z,21.05
2022-10-21T05:20:33.940Z,21.17
2022-10-21T05:23:04.189Z,22.35
2022-10-21T05:25:34.198Z,19.85
2022-10-21T05:28:01.800Z,19.85
2022-10-21T05:30:31.596Z,20.52
2022-10-21T05:32:59.808Z,18.55
2022-10-21T05:35:27.197Z,19.45
2022-10-21T05:37:54.222Z,18.42
2022-10-21T05:40:21.261Z,18.65
2022-10-21T05:42:48.282Z,19.15
2022-10-21T05:45:15.330Z,18.52
2022-10-21T05:47:42.453Z,18.65
2022-10-21T05:50:11.860Z,18.42
2022-10-21T05:52:40.048Z,16.73
2022-10-21T05:55:08.358Z,18.05
2022-10-21T05:57:36.849Z,17.85
2022-10-21T06:00:06.079Z,17.33
2022-10-21T06:02:33.596Z,18.60
2022-10-21T06:05:02.123Z,18.20
2022-10-21T06:07:29.568Z,17.70
2022-10-21T06:09:57.263Z,17.60
2022-10-21T06:12:24.258Z,18.17
2022-10-21T06:14:51.347Z,17.60
2022-10-21T06:17:18.418Z,17.63
2022-10-21T06:19:48.678Z,17.40
2022-10-21T06:22:17.886Z,18.33
2022-10-21T06:24:46.065Z,18.25
2022-10-21T06:27:13.794Z,16.40
2022-10-21T06:29:40.848Z,16.40
2022-10-21T06:32:08.018Z,17.13
2022-10-21T06:34:35.051Z,16.27
2022-10-21T06:37:02.068Z,17.13
2022-10-21T06:39:30.770Z,17.25
2022-10-21T06:41:59.137Z,17.65
2022-10-21T06:44:26.128Z,18.17
2022-10-21T06:46:54.106Z,17.92
2022-10-21T06:49:21.222Z,20.15
2022-10-21T06:51:48.221Z,17.70
2022-10-21T06:54:15.254Z,19.67
2022-10-21T06:56:42.274Z,18.55
2022-10-21T06:59:10.779Z,17.60
2022-10-21T07:02:04.641Z,17.95
2022-10-21T07:04:24.750Z,16.73
2022-10-21T07:06:51.810Z,16.10
2022-10-21T07:09:18.899Z,18.58
2022-10-21T07:11:45.977Z,19.40
2022-10-21T07:14:13.048Z,17.65
2022-10-21T07:16:40.149Z,17.73
2022-10-21T07:19:07.351Z,18.05
2022-10-21T07:21:34.549Z,18.35
2022-10-21T07:24:02.353Z,16.13
2022-10-21T07:26:34.739Z,17.80
2022-10-21T07:29:02.345Z,18.52
2022-10-21T07:31:35.782Z,18.23
2022-10-21T07:39:08.275Z,17.95
2022-10-21T07:41:38.032Z,17.52
2022-10-21T07:44:05.872Z,18.30
2022-10-21T07:46:33.153Z,19.25
2022-10-21T07:49:01.705Z,17.70
2022-10-21T07:51:31.610Z,17.98
2022-10-21T07:54:01.738Z,18.25
2022-10-21T07:56:35.193Z,18.02
2022-10-21T07:59:07.696Z,17.13
2022-10-21T08:01:40.292Z,18.08
2022-10-21T08:04:07.500Z,16.30
2022-10-21T08:06:34.601Z,17.00
2022-10-21T08:09:02.166Z,16.65
2022-10-21T08:11:33.176Z,15.02
2022-10-21T08:14:03.149Z,15.98
2022-10-21T08:16:33.626Z,16.10
2022-10-21T08:19:04.562Z,14.80
2022-10-21T08:21:32.020Z,14.45
2022-10-21T08:24:02.283Z,15.45
2022-10-21T08:26:31.677Z,15.60
2022-10-21T08:31:25.689Z,14.27
2022-10-21T08:33:52.838Z,14.50
2022-10-21T08:36:23.477Z,14.50
2022-10-21T08:38:50.972Z,14.68
2022-10-21T08:41:27.042Z,14.35
2022-10-21T08:44:02.162Z,13.55
2022-10-21T08:46:40.520Z,16.13
2022-10-21T08:49:18.023Z,13.40
2022-10-21T08:51:51.721Z,13.38
2022-10-21T08:54:24.035Z,14.02
2022-10-21T08:56:56.042Z,14.30
2022-10-21T08:59:24.802Z,13.43
2022-10-21T09:01:56.658Z,13.90
2022-10-21T09:04:43.794Z,19.35
2022-10-21T09:07:55.633Z,16.17
2022-10-21T09:10:51.240Z,12.52
2022-10-21T09:13:51.354Z,13.80
2022-10-21T09:16:36.695Z,14.15
2022-10-21T09:19:35.107Z,12.32
2022-10-21T09:22:33.700Z,11.40
2022-10-21T09:25:09.774Z,12.85
2022-10-21T09:27:55.532Z,12.10
2022-10-21T09:30:24.519Z,12.93
2022-10-21T09:32:57.182Z,13.43
2022-10-21T09:35:32.420Z,11.38
2022-10-21T09:38:25.864Z,11.38
2022-10-21T09:41:01.480Z,11.43
2022-10-21T09:43:32.215Z,11.50
2022-10-21T09:46:00.317Z,11.82
2022-10-21T09:49:06.880Z,11.90
2022-10-21T09:51:33.843Z,9.32
2022-10-21T09:54:15.606Z,11.93
2022-10-21T09:57:04.279Z,9.93
2022-10-21T09:59:37.192Z,9.60
2022-10-21T10:02:14.622Z,8.80
2022-10-21T10:04:41.947Z,10.38
2022-10-21T10:07:20.964Z,9.68
2022-10-21T10:09:48.513Z,10.27
2022-10-21T10:12:20.626Z,9.85
2022-10-21T10:14:48.656Z,8.70
2022-10-21T10:17:37.016Z,8.30
2022-10-21T10:20:04.148Z,9.15
2022-10-21T10:22:43.220Z,8.68
2022-10-21T10:25:21.476Z,9.40
2022-10-21T10:27:55.805Z,8.70
2022-10-21T10:30:25.513Z,8.40
2022-10-21T10:32:56.201Z,9.85
2022-10-21T10:35:36.121Z,8.77
2022-10-21T10:38:05.211Z,12.25
2022-10-21T10:40:39.565Z,8.50
2022-10-21T10:43:15.998Z,7.55
2022-10-21T10:45:56.586Z,7.97
2022-10-21T10:48:40.165Z,8.00
2022-10-21T10:51:31.197Z,7.50
2022-10-21T10:54:07.006Z,8.65
2022-10-21T10:56:51.800Z,7.88
2022-10-21T10:59:39.292Z,7.25
2022-10-21T11:02:12.897Z,6.82
2022-10-21T11:04:49.452Z,7.63
2022-10-21T11:07:35.675Z,7.82
2022-10-21T11:10:07.643Z,7.93
2022-10-21T11:12:34.713Z,6.18
2022-10-21T11:15:02.037Z,7.35
2022-10-21T11:17:38.888Z,6.57
2022-10-21T11:20:22.683Z,6.22
2022-10-21T11:23:14.419Z,6.38
2022-10-21T11:26:01.989Z,6.20
2022-10-21T11:28:48.341Z,6.32
2022-10-21T11:31:21.808Z,6.78
2022-10-21T11:34:18.594Z,5.75
2022-10-21T11:36:51.312Z,5.72
2022-10-21T11:39:30.843Z,5.20
2022-10-21T11:42:07.113Z,5.55
2022-10-21T11:45:11.018Z,6.18
2022-10-21T11:47:57.217Z,5.82
2022-10-21T11:50:32.938Z,5.15
2022-10-21T11:53:12.483Z,5.10
2022-10-21T11:55:47.720Z,5.00
2022-10-21T11:58:32.618Z,3.47
2022-10-21T12:01:32.928Z,4.07
2022-10-21T12:04:29.434Z,3.88
2022-10-21T12:07:08.933Z,3.83
2022-10-21T12:09:49.244Z,3.45
2022-10-21T12:12:21.555Z,3.42
2022-10-21T12:14:57.912Z,3.33
2022-10-21T12:17:26.041Z,3.40
2022-10-21T12:20:15.807Z,2.83
2022-10-21T12:22:43.750Z,2.80
2022-10-21T12:25:13.416Z,2.80
2022-10-21T12:27:52.294Z,2.78
2022-10-21T12:30:25.053Z,2.85
2022-10-21T12:33:00.641Z,3.10
2022-10-21T12:38:40.205Z,2.60
2022-10-21T12:41:34.645Z,3.47
2022-10-21T12:44:01.728Z,3.28
2022-10-21T12:46:37.516Z,2.83
2022-10-21T12:49:19.011Z,3.58
2022-10-21T12:51:55.785Z,3.50
2022-10-21T12:54:41.579Z,4.03
2022-10-21T12:57:11.441Z,3.53
2022-10-21T12:59:43.431Z,3.45
2022-10-21T13:02:24.284Z,3.15
2022-10-21T13:04:53.833Z,3.28
2022-10-21T13:07:34.816Z,5.90
2022-10-21T13:10:01.789Z,3.35
2022-10-21T13:12:32.613Z,3.33
2022-10-21T13:15:22.230Z,3.65
2022-10-21T13:17:57.197Z,3.08
2022-10-21T13:20:25.174Z,3.00
2022-10-21T13:23:01.981Z,3.55
2022-10-21T13:25:35.230Z,3.40
2022-10-21T13:28:17.826Z,3.60
2022-10-21T13:30:50.605Z,3.25
2022-10-21T13:33:22.703Z,3.03
2022-10-21T13:35:53.985Z,3.38
2022-10-21T13:38:33.314Z,2.85
2022-10-21T13:41:07.112Z,2.78
2022-10-21T13:43:44.853Z,2.63
2022-10-21T13:46:21.424Z,2.85
2022-10-21T13:48:49.042Z,3.00
2022-10-21T13:51:45.160Z,2.38
2022-10-21T13:54:14.995Z,2.60
2022-10-21T13:56:43.126Z,2.83
2022-10-21T13:59:34.533Z,2.65
2022-10-21T14:02:03.605Z,2.13
2022-10-21T14:04:33.962Z,2.15
2022-10-21T14:07:06.136Z,2.50
2022-10-21T14:09:40.206Z,1.75
2022-10-21T14:12:25.378Z,2.40
2022-10-21T14:14:55.818Z,2.22
2022-10-21T14:17:25.831Z,2.22
2022-10-21T14:20:07.690Z,2.20
2022-10-21T14:22:34.807Z,2.17
2022-10-21T14:25:02.978Z,2.55
2022-10-21T14:27:33.576Z,2.25
2022-10-21T14:30:07.252Z,1.80
2022-10-21T14:35:26.598Z,1.48
2022-10-21T14:37:59.102Z,1.92
2022-10-21T14:40:39.505Z,1.92
2022-10-21T14:43:12.158Z,1.77
2022-10-21T14:45:46.539Z,1.67
2022-10-21T14:48:36.711Z,2.25
2022-10-21T14:51:08.405Z,2.10
2022-10-21T14:53:57.228Z,1.75
2022-10-21T14:56:40.276Z,1.92
2022-10-21T14:59:21.983Z,1.90
2022-10-21T15:01:49.418Z,2.10
2022-10-21T15:05:01.665Z,2.13
2022-10-21T15:07:34.567Z,2.25
2022-10-21T15:10:04.369Z,1.73
2022-10-21T15:12:41.570Z,1.80
2022-10-21T15:15:39.914Z,1.88
2022-10-21T15:18:23.467Z,2.10
2022-10-21T15:21:02.569Z,2.45
2022-10-21T15:23:37.722Z,2.13
2022-10-21T15:26:32.670Z,2.20
2022-10-21T15:29:11.539Z,2.08
2022-10-21T15:31:38.674Z,1.58
2022-10-21T15:34:06.290Z,1.90
2022-10-21T15:36:33.292Z,1.73
2022-10-21T15:39:05.336Z,1.92
2022-10-21T15:41:35.564Z,1.95
2022-10-21T15:44:14.635Z,1.60
2022-10-21T15:46:46.327Z,1.73
2022-10-21T15:49:22.392Z,1.67
2022-10-21T15:51:50.459Z,1.83
2022-10-21T15:54:18.970Z,2.58
2022-10-21T15:56:49.570Z,1.85
2022-10-21T15:59:23.112Z,2.25
2022-10-21T16:01:51.136Z,2.33
2022-10-21T16:04:18.728Z,2.40
2022-10-21T16:06:49.909Z,2.38
2022-10-21T16:09:23.046Z,1.95
2022-10-21T16:11:59.525Z,2.13
2022-10-21T16:14:33.184Z,2.85
2022-10-21T16:17:03.011Z,1.88
2022-10-21T16:19:31.764Z,2.50
2022-10-21T16:21:58.772Z,2.45
2022-10-21T16:24:26.860Z,2.30
2022-10-21T16:26:53.912Z,1.80
2022-10-21T16:29:24.097Z,2.22
2022-10-21T16:31:51.983Z,2.85
2022-10-21T16:34:19.342Z,2.72
2022-10-21T16:36:46.672Z,3.47
2022-10-21T16:39:15.888Z,3.78
2022-10-21T16:41:42.913Z,4.07
2022-10-21T16:44:10.073Z,4.00
2022-10-21T16:46:46.385Z,4.35
2022-10-21T16:49:15.818Z,4.35
2022-10-21T16:51:45.914Z,4.53
2022-10-21T16:54:13.300Z,4.32
2022-10-21T16:56:40.461Z,3.47
2022-10-21T16:59:07.972Z,4.43
2022-10-21T17:01:35.109Z,4.60
2022-10-21T17:04:02.164Z,5.45
2022-10-21T17:06:31.500Z,5.90
2022-10-21T17:08:58.613Z,5.68
2022-10-21T17:11:38.053Z,5.72
2022-10-21T17:14:08.003Z,6.32
2022-10-21T17:16:35.046Z,6.38
2022-10-21T17:19:02.251Z,7.00
2022-10-21T17:21:32.429Z,7.95
2022-10-21T17:24:02.332Z,11.15
2022-10-21T17:26:31.765Z,10.73
2022-10-21T17:28:58.812Z,11.18
2022-10-21T17:31:28.504Z,10.23
2022-10-21T17:33:58.328Z,10.15
2022-10-21T17:36:25.331Z,9.60
2022-10-21T17:38:53.077Z,9.77
2022-10-21T17:41:20.474Z,10.05
2022-10-21T17:43:48.009Z,11.93
2022-10-21T17:46:19.988Z,15.00
2022-10-21T17:48:51.065Z,18.65
2022-10-21T17:51:18.908Z,14.07
2022-10-21T17:53:49.861Z,17.00
2022-10-21T17:56:16.997Z,17.90
2022-10-21T17:58:44.138Z,17.92
2022-10-21T18:01:13.343Z,18.90
2022-10-21T18:03:40.488Z,17.42
2022-10-21T18:06:10.674Z,15.90
2022-10-21T18:08:37.842Z,15.27
2022-10-21T18:11:14.408Z,17.80
2022-10-21T18:13:42.209Z,18.17
2022-10-21T18:16:14.098Z,19.13
2022-10-21T18:21:19.243Z,21.00
2022-10-21T18:23:49.283Z,22.67
2022-10-21T18:26:19.912Z,23.10
2022-10-21T18:28:51.471Z,24.48
2022-10-21T18:31:21.042Z,21.23
2022-10-21T18:33:48.787Z,22.13
2022-10-21T18:36:18.063Z,21.45
2022-10-21T18:38:45.114Z,21.05
2022-10-21T18:41:20.428Z,19.70
2022-10-21T18:43:51.452Z,21.17
2022-10-21T18:46:19.721Z,21.23
2022-10-21T18:48:47.543Z,21.85
2022-10-21T18:51:16.436Z,21.23
2022-10-21T18:53:46.115Z,20.70
2022-10-21T18:56:16.793Z,20.55
2022-10-21T18:58:44.649Z,19.05
2022-10-21T19:01:15.284Z,18.48
2022-10-21T19:03:43.683Z,20.08
2022-10-21T19:06:18.253Z,19.20
2022-10-21T19:08:46.990Z,35.47
2022-10-21T19:11:14.368Z,26.73
2022-10-21T19:13:41.624Z,45.25
2022-10-21T19:16:09.159Z,19.02
2022-10-21T19:18:36.495Z,22.33
2022-10-21T19:21:04.877Z,16.30
2022-10-21T19:23:33.716Z,24.77
2022-10-21T19:26:06.180Z,17.23
2022-10-21T19:28:35.228Z,17.20
2022-10-21T19:31:02.546Z,12.32
2022-10-21T19:33:33.243Z,11.55
2022-10-21T19:36:04.809Z,12.23
2022-10-21T19:38:50.521Z,14.75
2022-10-21T19:41:22.261Z,10.05
2022-10-21T19:43:51.752Z,19.73
2022-10-21T19:46:24.851Z,22.95
2022-10-21T19:48:53.886Z,19.27
2022-10-21T19:51:23.312Z,9.60
2022-10-21T19:53:51.234Z,6.90
2022-10-21T19:56:22.265Z,6.47
2022-10-21T19:58:53.101Z,6.55
2022-10-21T20:01:25.704Z,6.13
2022-10-21T20:03:53.814Z,5.57
2022-10-21T20:06:30.576Z,6.07
2022-10-21T20:09:01.824Z,5.88
2022-10-21T20:11:31.984Z,6.15
2022-10-21T20:14:00.754Z,5.45
2022-10-21T20:16:36.365Z,4.72
2022-10-21T20:19:05.527Z,5.25
2022-10-21T20:21:34.460Z,4.88
2022-10-21T20:24:02.280Z,4.93
2022-10-21T20:26:31.839Z,4.72
2022-10-21T20:29:01.921Z,5.57
2022-10-21T20:31:30.980Z,5.50
2022-10-21T20:33:58.016Z,5.00
2022-10-21T20:36:34.939Z,5.88
2022-10-21T20:39:03.127Z,5.75
2022-10-21T20:41:34.599Z,5.05
2022-10-21T20:44:03.316Z,5.55
2022-10-21T20:46:36.003Z,5.40
2022-10-21T20:49:06.752Z,7.15
2022-10-21T20:51:34.881Z,5.60
2022-10-21T20:54:08.047Z,6.63
2022-10-21T20:56:39.738Z,7.00
2022-10-21T20:59:08.998Z,6.13
2022-10-21T21:01:41.891Z,5.90
2022-10-21T21:04:12.471Z,6.47
2022-10-21T21:06:44.661Z,7.75
2022-10-21T21:12:04.400Z,6.28
2022-10-21T21:14:32.452Z,6.70
2022-10-21T21:16:59.766Z,6.28
2022-10-21T21:19:27.502Z,6.63
2022-10-21T21:21:54.640Z,6.38
2022-10-21T21:24:21.730Z,6.57
2022-10-21T21:26:48.837Z,6.00
2022-10-21T21:29:15.847Z,5.78
2022-10-21T21:31:43.691Z,5.50
2022-10-21T21:34:11.024Z,4.57
2022-10-21T21:36:38.052Z,4.85
2022-10-21T21:39:06.589Z,4.80
2022-10-21T21:41:34.533Z,4.55
2022-10-21T21:44:01.947Z,4.72
2022-10-21T21:46:29.388Z,5.18
2022-10-21T21:49:05.136Z,4.95
2022-10-21T21:51:34.496Z,4.90
2022-10-21T21:54:03.498Z,3.92
2022-10-21T21:56:31.891Z,4.38
2022-10-21T21:59:00.936Z,5.13
2022-10-21T22:01:31.350Z,5.13
2022-10-21T22:03:58.591Z,5.10
2022-10-21T22:06:28.535Z,5.15
2022-10-21T22:08:55.872Z,4.57
2022-10-21T22:11:26.017Z,5.82
2022-10-21T22:13:53.758Z,5.20
2022-10-21T22:16:24.166Z,4.88
2022-10-21T22:18:51.377Z,4.82
2022-10-21T22:21:19.084Z,4.55
2022-10-21T22:23:47.951Z,4.78
2022-10-21T22:26:16.160Z,4.68
2022-10-21T22:28:43.624Z,5.05
2022-10-21T22:31:13.530Z,4.65
2022-10-21T22:33:41.507Z,4.63
2022-10-21T22:36:08.891Z,4.13
2022-10-21T22:38:36.206Z,4.50
2022-10-21T22:41:07.144Z,4.13
2022-10-21T22:43:36.879Z,4.15
2022-10-21T22:46:09.868Z,5.00
2022-10-21T22:48:49.044Z,4.35
2022-10-21T22:51:16.072Z,5.15
2022-10-21T22:53:43.060Z,4.68
2022-10-21T22:56:10.562Z,4.03
2022-10-21T22:58:37.710Z,5.25
2022-10-21T23:01:09.683Z,4.90
2022-10-21T23:03:36.806Z,4.57
2022-10-21T23:06:04.061Z,4.55
2022-10-21T23:08:32.401Z,4.68
2022-10-21T23:11:01.252Z,4.38
2022-10-21T23:13:28.255Z,4.70
2022-10-21T23:15:55.346Z,4.80
2022-10-21T23:18:22.360Z,4.95
2022-10-21T23:20:49.427Z,4.28
2022-10-21T23:23:16.483Z,4.78
2022-10-21T23:25:43.817Z,5.07
2022-10-21T23:28:11.046Z,4.68
2022-10-21T23:30:38.615Z,4.80
2022-10-21T23:33:05.641Z,5.65
2022-10-21T23:35:32.668Z,4.95
2022-10-21T23:38:00.727Z,4.70
2022-10-21T23:40:27.971Z,5.25
2022-10-21T23:42:55.142Z,4.53
2022-10-21T23:45:22.459Z,4.70
2022-10-21T23:47:49.537Z,4.78
2022-10-21T23:50:16.668Z,5.22
2022-10-21T23:52:43.675Z,4.95
2022-10-21T23:55:11.056Z,5.05
2022-10-21T23:57:38.301Z,4.47
